sensor_id;sensor_type;location;lat;lon;timestamp;temperature;humidity
45207;DHT22;30950;53.086;21.576;2023-05-18T00:01:32;8.20;99.90
45207;DHT22;30950;53.086;21.576;2023-05-18T00:04:00;8.20;99.90
45207;DHT22;30950;53.086;21.576;2023-05-18T00:06:28;8.20;99.90
45207;DHT22;30950;53.086;21.576;2023-05-18T00:08:55;8.20;99.90
45207;DHT22;30950;53.086;21.576;2023-05-18T00:11:22;8.20;99.90
45207;DHT22;30950;53.086;21.576;2023-05-18T00:13:49;8.20;99.90
45207;DHT22;30950;53.086;21.576;2023-05-18T00:16:17;8.20;99.90
45207;DHT22;30950;53.086;21.576;2023-05-18T00:18:44;8.20;99.90
45207;DHT22;30950;53.086;21.576;2023-05-18T00:21:12;8.10;99.90
45207;DHT22;30950;53.086;21.576;2023-05-18T00:23:42;8.10;99.90
45207;DHT22;30950;53.086;21.576;2023-05-18T00:26:15;8.10;99.90
45207;DHT22;30950;53.086;21.576;2023-05-18T00:28:43;8.10;99.90
45207;DHT22;30950;53.086;21.576;2023-05-18T00:31:10;8.00;99.90
45207;DHT22;30950;53.086;21.576;2023-05-18T00:33:37;8.00;99.90
45207;DHT22;30950;53.086;21.576;2023-05-18T00:36:05;8.00;99.90
45207;DHT22;30950;53.086;21.576;2023-05-18T00:38:32;8.00;99.90
45207;DHT22;30950;53.086;21.576;2023-05-18T00:40:59;7.90;99.90
45207;DHT22;30950;53.086;21.576;2023-05-18T00:43:26;7.90;99.90
45207;DHT22;30950;53.086;21.576;2023-05-18T00:45:54;7.80;99.90
45207;DHT22;30950;53.086;21.576;2023-05-18T00:48:21;7.90;99.90
45207;DHT22;30950;53.086;21.576;2023-05-18T00:50:49;7.80;99.90
45207;DHT22;30950;53.086;21.576;2023-05-18T00:53:16;7.70;99.90
45207;DHT22;30950;53.086;21.576;2023-05-18T00:55:44;7.60;99.90
45207;DHT22;30950;53.086;21.576;2023-05-18T00:58:11;7.60;99.90
45207;DHT22;30950;53.086;21.576;2023-05-18T01:00:39;7.60;99.90
45207;DHT22;30950;53.086;21.576;2023-05-18T01:03:06;7.50;99.90
45207;DHT22;30950;53.086;21.576;2023-05-18T01:05:38;7.50;99.90
45207;DHT22;30950;53.086;21.576;2023-05-18T01:08:06;7.50;99.90
45207;DHT22;30950;53.086;21.576;2023-05-18T01:10:36;7.40;99.90
45207;DHT22;30950;53.086;21.576;2023-05-18T01:13:17;7.40;99.90
45207;DHT22;30950;53.086;21.576;2023-05-18T01:15:52;7.30;99.90
45207;DHT22;30950;53.086;21.576;2023-05-18T01:18:22;7.30;99.90
45207;DHT22;30950;53.086;21.576;2023-05-18T01:21:31;7.30;99.90
45207;DHT22;30950;53.086;21.576;2023-05-18T01:26:43;7.20;99.90
45207;DHT22;30950;53.086;21.576;2023-05-18T01:29:12;7.10;99.90
45207;DHT22;30950;53.086;21.576;2023-05-18T01:31:42;7.00;99.90
45207;DHT22;30950;53.086;21.576;2023-05-18T01:34:10;7.10;99.90
45207;DHT22;30950;53.086;21.576;2023-05-18T01:36:37;7.00;99.90
45207;DHT22;30950;53.086;21.576;2023-05-18T01:39:04;7.00;99.90
45207;DHT22;30950;53.086;21.576;2023-05-18T01:41:36;7.00;99.90
45207;DHT22;30950;53.086;21.576;2023-05-18T01:49:53;6.90;99.90
45207;DHT22;30950;53.086;21.576;2023-05-18T01:52:34;6.90;99.90
45207;DHT22;30950;53.086;21.576;2023-05-18T01:55:03;7.00;99.90
45207;DHT22;30950;53.086;21.576;2023-05-18T01:57:35;6.90;99.90
45207;DHT22;30950;53.086;21.576;2023-05-18T02:00:03;6.90;99.90
45207;DHT22;30950;53.086;21.576;2023-05-18T02:02:43;6.90;99.90
45207;DHT22;30950;53.086;21.576;2023-05-18T02:05:13;6.90;99.90
45207;DHT22;30950;53.086;21.576;2023-05-18T02:07:41;6.90;99.90
45207;DHT22;30950;53.086;21.576;2023-05-18T02:10:10;7.00;99.90
45207;DHT22;30950;53.086;21.576;2023-05-18T02:12:38;6.90;99.90
45207;DHT22;30950;53.086;21.576;2023-05-18T02:15:05;6.90;99.90
45207;DHT22;30950;53.086;21.576;2023-05-18T02:17:36;6.80;99.90
45207;DHT22;30950;53.086;21.576;2023-05-18T02:20:05;6.80;99.90
45207;DHT22;30950;53.086;21.576;2023-05-18T02:22:33;6.80;99.90
45207;DHT22;30950;53.086;21.576;2023-05-18T02:25:04;6.80;99.90
45207;DHT22;30950;53.086;21.576;2023-05-18T02:27:33;6.70;99.90
45207;DHT22;30950;53.086;21.576;2023-05-18T02:30:03;6.70;99.90
45207;DHT22;30950;53.086;21.576;2023-05-18T02:32:31;6.70;99.90
45207;DHT22;30950;53.086;21.576;2023-05-18T02:34:58;6.70;99.90
45207;DHT22;30950;53.086;21.576;2023-05-18T02:37:30;6.70;99.90
45207;DHT22;30950;53.086;21.576;2023-05-18T02:40:00;6.70;99.90
45207;DHT22;30950;53.086;21.576;2023-05-18T02:42:28;6.70;99.90
45207;DHT22;30950;53.086;21.576;2023-05-18T02:44:56;6.60;99.90
45207;DHT22;30950;53.086;21.576;2023-05-18T02:47:23;6.60;99.90
45207;DHT22;30950;53.086;21.576;2023-05-18T02:49:50;6.70;99.90
45207;DHT22;30950;53.086;21.576;2023-05-18T02:52:18;6.60;99.90
45207;DHT22;30950;53.086;21.576;2023-05-18T02:54:45;6.60;99.90
45207;DHT22;30950;53.086;21.576;2023-05-18T02:57:18;6.60;99.90
45207;DHT22;30950;53.086;21.576;2023-05-18T03:00:07;6.60;99.90
45207;DHT22;30950;53.086;21.576;2023-05-18T03:02:38;6.60;99.90
45207;DHT22;30950;53.086;21.576;2023-05-18T03:05:06;6.60;99.90
45207;DHT22;30950;53.086;21.576;2023-05-18T03:07:34;6.60;99.90
45207;DHT22;30950;53.086;21.576;2023-05-18T03:10:02;6.60;99.90
45207;DHT22;30950;53.086;21.576;2023-05-18T03:12:31;6.60;99.90
45207;DHT22;30950;53.086;21.576;2023-05-18T03:14:59;6.60;99.90
45207;DHT22;30950;53.086;21.576;2023-05-18T03:17:26;6.60;99.90
45207;DHT22;30950;53.086;21.576;2023-05-18T03:19:53;7.30;99.90
45207;DHT22;30950;53.086;21.576;2023-05-18T03:22:21;6.60;99.90
45207;DHT22;30950;53.086;21.576;2023-05-18T03:24:48;6.60;99.90
45207;DHT22;30950;53.086;21.576;2023-05-18T03:27:17;6.60;99.90
45207;DHT22;30950;53.086;21.576;2023-05-18T03:29:46;6.60;99.90
45207;DHT22;30950;53.086;21.576;2023-05-18T03:32:13;6.60;99.90
45207;DHT22;30950;53.086;21.576;2023-05-18T03:34:40;6.80;99.90
45207;DHT22;30950;53.086;21.576;2023-05-18T03:37:08;6.60;99.90
45207;DHT22;30950;53.086;21.576;2023-05-18T03:39:35;6.60;99.90
45207;DHT22;30950;53.086;21.576;2023-05-18T03:42:03;6.80;99.90
45207;DHT22;30950;53.086;21.576;2023-05-18T03:44:30;6.60;99.90
45207;DHT22;30950;53.086;21.576;2023-05-18T03:46:58;6.60;99.90
45207;DHT22;30950;53.086;21.576;2023-05-18T03:49:25;6.70;99.90
45207;DHT22;30950;53.086;21.576;2023-05-18T03:51:53;6.70;99.90
45207;DHT22;30950;53.086;21.576;2023-05-18T03:54:21;6.70;99.90
45207;DHT22;30950;53.086;21.576;2023-05-18T03:56:50;6.70;99.90
45207;DHT22;30950;53.086;21.576;2023-05-18T03:59:18;6.70;99.90
45207;DHT22;30950;53.086;21.576;2023-05-18T04:01:45;7.10;99.90
45207;DHT22;30950;53.086;21.576;2023-05-18T04:04:12;6.70;99.90
45207;DHT22;30950;53.086;21.576;2023-05-18T04:06:44;6.70;99.90
45207;DHT22;30950;53.086;21.576;2023-05-18T04:09:12;6.70;99.90
45207;DHT22;30950;53.086;21.576;2023-05-18T04:11:43;6.70;99.90
45207;DHT22;30950;53.086;21.576;2023-05-18T04:14:11;6.70;99.90
45207;DHT22;30950;53.086;21.576;2023-05-18T04:16:40;7.00;99.90
45207;DHT22;30950;53.086;21.576;2023-05-18T04:19:08;6.80;99.90
45207;DHT22;30950;53.086;21.576;2023-05-18T04:21:36;7.00;99.90
45207;DHT22;30950;53.086;21.576;2023-05-18T04:24:04;6.90;99.90
45207;DHT22;30950;53.086;21.576;2023-05-18T04:26:33;6.90;99.90
45207;DHT22;30950;53.086;21.576;2023-05-18T04:29:02;7.00;99.90
45207;DHT22;30950;53.086;21.576;2023-05-18T04:31:30;7.10;99.90
45207;DHT22;30950;53.086;21.576;2023-05-18T04:33:57;7.10;99.90
45207;DHT22;30950;53.086;21.576;2023-05-18T04:36:26;7.20;99.90
45207;DHT22;30950;53.086;21.576;2023-05-18T04:38:57;7.20;99.90
45207;DHT22;30950;53.086;21.576;2023-05-18T04:41:25;7.30;99.90
45207;DHT22;30950;53.086;21.576;2023-05-18T04:43:52;7.40;99.90
45207;DHT22;30950;53.086;21.576;2023-05-18T04:46:19;7.40;99.90
45207;DHT22;30950;53.086;21.576;2023-05-18T04:48:50;7.50;99.90
45207;DHT22;30950;53.086;21.576;2023-05-18T04:51:19;7.80;99.90
45207;DHT22;30950;53.086;21.576;2023-05-18T04:53:48;7.60;99.90
45207;DHT22;30950;53.086;21.576;2023-05-18T04:56:19;7.80;99.90
45207;DHT22;30950;53.086;21.576;2023-05-18T04:58:49;7.80;99.90
45207;DHT22;30950;53.086;21.576;2023-05-18T05:01:17;7.90;99.90
45207;DHT22;30950;53.086;21.576;2023-05-18T05:03:45;8.10;99.90
45207;DHT22;30950;53.086;21.576;2023-05-18T05:06:12;8.10;99.90
45207;DHT22;30950;53.086;21.576;2023-05-18T05:08:40;8.20;99.90
45207;DHT22;30950;53.086;21.576;2023-05-18T05:11:07;8.30;99.90
45207;DHT22;30950;53.086;21.576;2023-05-18T05:13:34;8.40;99.90
45207;DHT22;30950;53.086;21.576;2023-05-18T05:16:02;8.40;99.90
45207;DHT22;30950;53.086;21.576;2023-05-18T05:18:29;8.50;99.90
45207;DHT22;30950;53.086;21.576;2023-05-18T05:20:57;8.60;99.90
45207;DHT22;30950;53.086;21.576;2023-05-18T05:23:25;8.70;99.90
45207;DHT22;30950;53.086;21.576;2023-05-18T05:25:53;9.30;99.90
45207;DHT22;30950;53.086;21.576;2023-05-18T05:28:21;10.60;99.90
45207;DHT22;30950;53.086;21.576;2023-05-18T05:30:48;9.80;99.90
45207;DHT22;30950;53.086;21.576;2023-05-18T05:33:17;9.30;99.90
45207;DHT22;30950;53.086;21.576;2023-05-18T05:35:44;9.10;99.90
45207;DHT22;30950;53.086;21.576;2023-05-18T05:38:12;9.20;99.90
45207;DHT22;30950;53.086;21.576;2023-05-18T05:40:39;9.20;99.90
45207;DHT22;30950;53.086;21.576;2023-05-18T05:43:08;9.20;99.90
45207;DHT22;30950;53.086;21.576;2023-05-18T05:45:35;9.20;99.90
45207;DHT22;30950;53.086;21.576;2023-05-18T05:48:06;9.20;99.90
45207;DHT22;30950;53.086;21.576;2023-05-18T05:50:34;9.40;99.90
45207;DHT22;30950;53.086;21.576;2023-05-18T05:53:04;9.40;99.90
45207;DHT22;30950;53.086;21.576;2023-05-18T05:55:35;9.50;99.90
45207;DHT22;30950;53.086;21.576;2023-05-18T05:58:12;9.60;99.90
45207;DHT22;30950;53.086;21.576;2023-05-18T06:00:42;9.60;99.90
45207;DHT22;30950;53.086;21.576;2023-05-18T06:03:09;9.70;99.90
45207;DHT22;30950;53.086;21.576;2023-05-18T06:05:41;9.80;99.90
45207;DHT22;30950;53.086;21.576;2023-05-18T06:08:10;9.90;99.90
45207;DHT22;30950;53.086;21.576;2023-05-18T06:10:38;9.90;99.90
45207;DHT22;30950;53.086;21.576;2023-05-18T06:13:08;10.00;99.90
45207;DHT22;30950;53.086;21.576;2023-05-18T06:15:48;10.10;99.90
45207;DHT22;30950;53.086;21.576;2023-05-18T06:18:15;10.30;99.90
45207;DHT22;30950;53.086;21.576;2023-05-18T06:20:43;10.20;99.90
45207;DHT22;30950;53.086;21.576;2023-05-18T06:23:11;10.10;99.90
45207;DHT22;30950;53.086;21.576;2023-05-18T06:26:10;10.20;99.90
45207;DHT22;30950;53.086;21.576;2023-05-18T06:29:02;10.30;99.90
45207;DHT22;30950;53.086;21.576;2023-05-18T06:31:42;10.30;99.90
45207;DHT22;30950;53.086;21.576;2023-05-18T06:34:13;10.40;99.90
45207;DHT22;30950;53.086;21.576;2023-05-18T06:36:40;10.40;99.90
45207;DHT22;30950;53.086;21.576;2023-05-18T06:39:07;10.40;99.90
45207;DHT22;30950;53.086;21.576;2023-05-18T06:41:35;10.50;99.90
45207;DHT22;30950;53.086;21.576;2023-05-18T06:44:02;10.50;99.90
45207;DHT22;30950;53.086;21.576;2023-05-18T06:46:36;10.60;99.90
45207;DHT22;30950;53.086;21.576;2023-05-18T06:49:17;10.60;99.90
45207;DHT22;30950;53.086;21.576;2023-05-18T06:51:45;10.80;99.90
45207;DHT22;30950;53.086;21.576;2023-05-18T06:54:12;10.70;99.90
45207;DHT22;30950;53.086;21.576;2023-05-18T06:56:40;10.70;99.90
45207;DHT22;30950;53.086;21.576;2023-05-18T06:59:07;10.90;99.90
45207;DHT22;30950;53.086;21.576;2023-05-18T07:01:35;11.10;99.90
45207;DHT22;30950;53.086;21.576;2023-05-18T07:04:03;11.00;99.90
45207;DHT22;30950;53.086;21.576;2023-05-18T07:06:31;11.10;99.90
45207;DHT22;30950;53.086;21.576;2023-05-18T07:08:58;11.60;99.90
45207;DHT22;30950;53.086;21.576;2023-05-18T07:11:25;11.10;99.90
45207;DHT22;30950;53.086;21.576;2023-05-18T07:13:55;11.20;99.90
45207;DHT22;30950;53.086;21.576;2023-05-18T07:16:25;11.30;99.90
45207;DHT22;30950;53.086;21.576;2023-05-18T07:18:55;11.30;99.90
45207;DHT22;30950;53.086;21.576;2023-05-18T07:21:22;11.30;99.90
45207;DHT22;30950;53.086;21.576;2023-05-18T07:23:49;11.30;99.90
45207;DHT22;30950;53.086;21.576;2023-05-18T07:26:18;11.30;99.90
45207;DHT22;30950;53.086;21.576;2023-05-18T07:28:46;11.30;99.90
45207;DHT22;30950;53.086;21.576;2023-05-18T07:31:14;11.40;99.90
45207;DHT22;30950;53.086;21.576;2023-05-18T07:33:43;11.50;99.90
45207;DHT22;30950;53.086;21.576;2023-05-18T07:36:10;11.60;99.90
45207;DHT22;30950;53.086;21.576;2023-05-18T07:38:38;11.70;99.90
45207;DHT22;30950;53.086;21.576;2023-05-18T07:41:05;12.10;99.90
45207;DHT22;30950;53.086;21.576;2023-05-18T07:43:33;11.90;99.90
45207;DHT22;30950;53.086;21.576;2023-05-18T07:46:00;12.00;99.90
45207;DHT22;30950;53.086;21.576;2023-05-18T07:48:27;12.10;99.90
45207;DHT22;30950;53.086;21.576;2023-05-18T07:50:54;12.10;99.90
45207;DHT22;30950;53.086;21.576;2023-05-18T07:53:22;12.20;99.90
45207;DHT22;30950;53.086;21.576;2023-05-18T07:55:49;12.30;99.90
45207;DHT22;30950;53.086;21.576;2023-05-18T07:58:17;12.30;99.90
45207;DHT22;30950;53.086;21.576;2023-05-18T08:00:44;12.30;99.90
45207;DHT22;30950;53.086;21.576;2023-05-18T08:03:12;12.40;99.90
45207;DHT22;30950;53.086;21.576;2023-05-18T08:05:39;12.50;99.90
45207;DHT22;30950;53.086;21.576;2023-05-18T08:08:08;12.60;99.90
45207;DHT22;30950;53.086;21.576;2023-05-18T08:10:37;12.70;99.90
45207;DHT22;30950;53.086;21.576;2023-05-18T08:13:05;12.80;99.90
45207;DHT22;30950;53.086;21.576;2023-05-18T08:15:33;12.90;99.90
45207;DHT22;30950;53.086;21.576;2023-05-18T08:18:01;13.00;99.90
45207;DHT22;30950;53.086;21.576;2023-05-18T08:20:28;13.20;99.90
45207;DHT22;30950;53.086;21.576;2023-05-18T08:22:56;13.20;99.90
45207;DHT22;30950;53.086;21.576;2023-05-18T08:25:24;13.30;99.90
45207;DHT22;30950;53.086;21.576;2023-05-18T08:27:52;13.30;99.90
45207;DHT22;30950;53.086;21.576;2023-05-18T08:30:20;13.40;99.90
45207;DHT22;30950;53.086;21.576;2023-05-18T08:32:47;13.50;99.90
45207;DHT22;30950;53.086;21.576;2023-05-18T08:35:15;13.50;99.90
45207;DHT22;30950;53.086;21.576;2023-05-18T08:37:42;13.60;99.90
45207;DHT22;30950;53.086;21.576;2023-05-18T08:40:10;13.70;99.90
45207;DHT22;30950;53.086;21.576;2023-05-18T08:42:49;13.70;99.90
45207;DHT22;30950;53.086;21.576;2023-05-18T08:45:41;13.80;99.90
45207;DHT22;30950;53.086;21.576;2023-05-18T08:48:11;13.80;99.90
45207;DHT22;30950;53.086;21.576;2023-05-18T08:50:41;13.80;99.90
45207;DHT22;30950;53.086;21.576;2023-05-18T08:53:10;13.80;99.90
45207;DHT22;30950;53.086;21.576;2023-05-18T08:55:41;13.80;99.90
45207;DHT22;30950;53.086;21.576;2023-05-18T08:58:12;13.80;99.90
45207;DHT22;30950;53.086;21.576;2023-05-18T09:00:40;13.80;99.90
45207;DHT22;30950;53.086;21.576;2023-05-18T09:03:07;13.80;99.90
45207;DHT22;30950;53.086;21.576;2023-05-18T09:05:35;13.90;99.90
45207;DHT22;30950;53.086;21.576;2023-05-18T09:08:05;13.90;99.90
45207;DHT22;30950;53.086;21.576;2023-05-18T09:10:33;14.00;99.90
45207;DHT22;30950;53.086;21.576;2023-05-18T09:13:00;14.00;99.90
45207;DHT22;30950;53.086;21.576;2023-05-18T09:15:32;14.20;99.90
45207;DHT22;30950;53.086;21.576;2023-05-18T09:18:01;14.20;99.90
45207;DHT22;30950;53.086;21.576;2023-05-18T09:20:30;14.20;99.90
45207;DHT22;30950;53.086;21.576;2023-05-18T09:22:58;14.20;99.90
45207;DHT22;30950;53.086;21.576;2023-05-18T09:25:26;14.20;99.90
45207;DHT22;30950;53.086;21.576;2023-05-18T09:27:53;14.30;99.90
45207;DHT22;30950;53.086;21.576;2023-05-18T09:30:23;14.30;99.90
45207;DHT22;30950;53.086;21.576;2023-05-18T09:32:51;14.40;99.90
45207;DHT22;30950;53.086;21.576;2023-05-18T09:35:19;14.50;99.10
45207;DHT22;30950;53.086;21.576;2023-05-18T09:37:48;14.40;97.90
45207;DHT22;30950;53.086;21.576;2023-05-18T09:40:15;14.40;97.90
45207;DHT22;30950;53.086;21.576;2023-05-18T09:42:43;14.40;98.80
45207;DHT22;30950;53.086;21.576;2023-05-18T09:45:22;14.50;98.90
45207;DHT22;30950;53.086;21.576;2023-05-18T09:47:54;14.60;96.80
45207;DHT22;30950;53.086;21.576;2023-05-18T09:50:23;14.60;96.80
45207;DHT22;30950;53.086;21.576;2023-05-18T09:52:51;14.60;97.90
45207;DHT22;30950;53.086;21.576;2023-05-18T09:55:19;14.70;97.20
45207;DHT22;30950;53.086;21.576;2023-05-18T09:57:50;14.70;95.40
45207;DHT22;30950;53.086;21.576;2023-05-18T10:00:18;14.80;96.40
45207;DHT22;30950;53.086;21.576;2023-05-18T10:02:49;14.80;96.40
45207;DHT22;30950;53.086;21.576;2023-05-18T10:05:28;14.90;97.50
45207;DHT22;30950;53.086;21.576;2023-05-18T10:08:04;15.00;98.20
45207;DHT22;30950;53.086;21.576;2023-05-18T10:10:37;15.20;97.80
45207;DHT22;30950;53.086;21.576;2023-05-18T10:13:05;15.30;94.50
45207;DHT22;30950;53.086;21.576;2023-05-18T10:15:32;15.40;95.30
45207;DHT22;30950;53.086;21.576;2023-05-18T10:18:02;15.40;94.10
45207;DHT22;30950;53.086;21.576;2023-05-18T10:20:32;15.50;94.50
45207;DHT22;30950;53.086;21.576;2023-05-18T10:23:04;15.60;93.20
45207;DHT22;30950;53.086;21.576;2023-05-18T10:25:32;15.70;93.00
45207;DHT22;30950;53.086;21.576;2023-05-18T10:28:05;15.80;93.90
45207;DHT22;30950;53.086;21.576;2023-05-18T10:30:33;15.90;92.50
45207;DHT22;30950;53.086;21.576;2023-05-18T10:33:01;15.90;92.20
45207;DHT22;30950;53.086;21.576;2023-05-18T10:35:44;16.10;90.80
45207;DHT22;30950;53.086;21.576;2023-05-18T10:38:20;16.20;91.30
45207;DHT22;30950;53.086;21.576;2023-05-18T10:40:50;16.20;90.70
45207;DHT22;30950;53.086;21.576;2023-05-18T10:43:19;16.20;88.60
45207;DHT22;30950;53.086;21.576;2023-05-18T10:45:57;16.30;90.40
45207;DHT22;30950;53.086;21.576;2023-05-18T10:48:26;16.20;87.20
45207;DHT22;30950;53.086;21.576;2023-05-18T10:50:55;16.30;88.50
45207;DHT22;30950;53.086;21.576;2023-05-18T10:53:25;16.30;88.80
45207;DHT22;30950;53.086;21.576;2023-05-18T10:55:53;16.30;86.80
45207;DHT22;30950;53.086;21.576;2023-05-18T10:58:24;16.30;88.00
45207;DHT22;30950;53.086;21.576;2023-05-18T11:00:54;16.40;88.00
45207;DHT22;30950;53.086;21.576;2023-05-18T11:03:22;16.40;88.10
45207;DHT22;30950;53.086;21.576;2023-05-18T11:06:05;16.50;83.80
45207;DHT22;30950;53.086;21.576;2023-05-18T11:08:49;16.40;80.90
45207;DHT22;30950;53.086;21.576;2023-05-18T11:11:17;16.30;83.90
45207;DHT22;30950;53.086;21.576;2023-05-18T11:13:49;16.40;85.80
45207;DHT22;30950;53.086;21.576;2023-05-18T11:16:18;16.40;84.00
45207;DHT22;30950;53.086;21.576;2023-05-18T11:18:48;16.40;83.20
45207;DHT22;30950;53.086;21.576;2023-05-18T11:24:18;16.50;85.10
45207;DHT22;30950;53.086;21.576;2023-05-18T11:26:48;16.50;84.90
45207;DHT22;30950;53.086;21.576;2023-05-18T11:29:17;16.60;84.30
45207;DHT22;30950;53.086;21.576;2023-05-18T11:31:46;16.70;83.60
45207;DHT22;30950;53.086;21.576;2023-05-18T11:34:40;16.70;82.70
45207;DHT22;30950;53.086;21.576;2023-05-18T11:37:12;16.70;80.60
45207;DHT22;30950;53.086;21.576;2023-05-18T11:39:41;16.80;82.90
45207;DHT22;30950;53.086;21.576;2023-05-18T11:42:31;16.80;79.10
45207;DHT22;30950;53.086;21.576;2023-05-18T11:45:07;16.80;80.70
45207;DHT22;30950;53.086;21.576;2023-05-18T11:47:35;16.80;78.00
45207;DHT22;30950;53.086;21.576;2023-05-18T11:50:06;16.70;79.20
45207;DHT22;30950;53.086;21.576;2023-05-18T11:52:44;16.70;79.50
45207;DHT22;30950;53.086;21.576;2023-05-18T11:55:18;16.70;79.60
45207;DHT22;30950;53.086;21.576;2023-05-18T11:57:50;16.70;79.20
45207;DHT22;30950;53.086;21.576;2023-05-18T12:00:23;16.70;78.90
45207;DHT22;30950;53.086;21.576;2023-05-18T12:02:50;16.60;77.70
45207;DHT22;30950;53.086;21.576;2023-05-18T12:05:19;16.60;78.90
45207;DHT22;30950;53.086;21.576;2023-05-18T12:07:51;16.60;79.80
45207;DHT22;30950;53.086;21.576;2023-05-18T12:10:20;16.60;79.50
45207;DHT22;30950;53.086;21.576;2023-05-18T12:12:51;16.60;78.80
45207;DHT22;30950;53.086;21.576;2023-05-18T12:15:22;16.70;79.20
45207;DHT22;30950;53.086;21.576;2023-05-18T12:17:50;16.70;80.00
45207;DHT22;30950;53.086;21.576;2023-05-18T12:20:20;16.70;79.60
45207;DHT22;30950;53.086;21.576;2023-05-18T12:22:50;16.80;79.90
45207;DHT22;30950;53.086;21.576;2023-05-18T12:25:20;16.90;76.40
45207;DHT22;30950;53.086;21.576;2023-05-18T12:27:51;16.90;75.60
45207;DHT22;30950;53.086;21.576;2023-05-18T12:30:23;16.90;75.00
45207;DHT22;30950;53.086;21.576;2023-05-18T12:32:55;16.90;74.90
45207;DHT22;30950;53.086;21.576;2023-05-18T12:35:24;17.00;75.50
45207;DHT22;30950;53.086;21.576;2023-05-18T12:37:56;17.10;76.00
45207;DHT22;30950;53.086;21.576;2023-05-18T12:40:32;17.30;75.70
45207;DHT22;30950;53.086;21.576;2023-05-18T12:43:03;17.50;74.20
45207;DHT22;30950;53.086;21.576;2023-05-18T12:45:32;17.60;73.00
45207;DHT22;30950;53.086;21.576;2023-05-18T12:48:04;17.70;72.50
45207;DHT22;30950;53.086;21.576;2023-05-18T12:50:32;17.80;68.40
45207;DHT22;30950;53.086;21.576;2023-05-18T12:53:00;17.80;68.10
45207;DHT22;30950;53.086;21.576;2023-05-18T12:55:29;18.00;69.20
45207;DHT22;30950;53.086;21.576;2023-05-18T12:58:06;18.10;69.10
45207;DHT22;30950;53.086;21.576;2023-05-18T13:00:42;18.10;67.50
45207;DHT22;30950;53.086;21.576;2023-05-18T13:03:19;18.10;67.70
45207;DHT22;30950;53.086;21.576;2023-05-18T13:06:06;18.20;65.40
45207;DHT22;30950;53.086;21.576;2023-05-18T13:08:34;18.10;64.40
45207;DHT22;30950;53.086;21.576;2023-05-18T13:11:02;18.00;63.90
45207;DHT22;30950;53.086;21.576;2023-05-18T13:13:59;17.90;63.30
45207;DHT22;30950;53.086;21.576;2023-05-18T13:16:27;17.90;64.70
45207;DHT22;30950;53.086;21.576;2023-05-18T13:18:58;17.80;63.20
45207;DHT22;30950;53.086;21.576;2023-05-18T13:21:25;17.80;63.30
45207;DHT22;30950;53.086;21.576;2023-05-18T13:23:53;17.80;64.00
45207;DHT22;30950;53.086;21.576;2023-05-18T13:26:21;17.70;63.60
45207;DHT22;30950;53.086;21.576;2023-05-18T13:28:50;17.70;63.10
45207;DHT22;30950;53.086;21.576;2023-05-18T13:31:19;17.60;63.10
45207;DHT22;30950;53.086;21.576;2023-05-18T13:33:47;17.60;64.20
45207;DHT22;30950;53.086;21.576;2023-05-18T13:36:15;17.60;64.60
45207;DHT22;30950;53.086;21.576;2023-05-18T13:38:42;17.70;65.20
45207;DHT22;30950;53.086;21.576;2023-05-18T13:41:11;17.70;63.70
45207;DHT22;30950;53.086;21.576;2023-05-18T13:43:40;17.70;64.40
45207;DHT22;30950;53.086;21.576;2023-05-18T13:46:12;17.70;64.10
45207;DHT22;30950;53.086;21.576;2023-05-18T13:48:39;17.90;65.10
45207;DHT22;30950;53.086;21.576;2023-05-18T13:51:07;18.00;64.70
45207;DHT22;30950;53.086;21.576;2023-05-18T13:53:34;18.10;64.30
45207;DHT22;30950;53.086;21.576;2023-05-18T13:56:03;18.10;64.60
45207;DHT22;30950;53.086;21.576;2023-05-18T13:58:31;18.10;64.90
45207;DHT22;30950;53.086;21.576;2023-05-18T14:00:58;18.10;64.50
45207;DHT22;30950;53.086;21.576;2023-05-18T14:03:29;18.00;63.30
45207;DHT22;30950;53.086;21.576;2023-05-18T14:06:00;17.90;63.40
45207;DHT22;30950;53.086;21.576;2023-05-18T14:08:27;17.70;64.00
45207;DHT22;30950;53.086;21.576;2023-05-18T14:10:54;17.60;62.30
45207;DHT22;30950;53.086;21.576;2023-05-18T14:13:21;17.40;63.50
45207;DHT22;30950;53.086;21.576;2023-05-18T14:15:49;17.20;64.30
45207;DHT22;30950;53.086;21.576;2023-05-18T14:18:16;17.20;65.30
45207;DHT22;30950;53.086;21.576;2023-05-18T14:20:44;17.20;65.90
45207;DHT22;30950;53.086;21.576;2023-05-18T14:23:13;17.10;66.00
45207;DHT22;30950;53.086;21.576;2023-05-18T14:25:41;17.10;65.60
45207;DHT22;30950;53.086;21.576;2023-05-18T14:28:09;17.10;65.60
45207;DHT22;30950;53.086;21.576;2023-05-18T14:30:37;17.00;66.00
45207;DHT22;30950;53.086;21.576;2023-05-18T14:33:04;17.00;65.30
45207;DHT22;30950;53.086;21.576;2023-05-18T14:35:31;17.00;65.20
45207;DHT22;30950;53.086;21.576;2023-05-18T14:37:58;17.00;65.20
45207;DHT22;30950;53.086;21.576;2023-05-18T14:40:26;17.00;64.90
45207;DHT22;30950;53.086;21.576;2023-05-18T14:42:53;17.10;66.40
45207;DHT22;30950;53.086;21.576;2023-05-18T14:45:20;17.20;65.90
45207;DHT22;30950;53.086;21.576;2023-05-18T14:47:47;17.30;66.60
45207;DHT22;30950;53.086;21.576;2023-05-18T14:50:15;17.40;64.80
45207;DHT22;30950;53.086;21.576;2023-05-18T14:52:42;17.50;64.30
45207;DHT22;30950;53.086;21.576;2023-05-18T14:55:10;17.50;64.60
45207;DHT22;30950;53.086;21.576;2023-05-18T14:57:37;17.60;65.00
45207;DHT22;30950;53.086;21.576;2023-05-18T15:00:05;17.70;65.10
45207;DHT22;30950;53.086;21.576;2023-05-18T15:02:32;17.70;65.30
45207;DHT22;30950;53.086;21.576;2023-05-18T15:05:00;17.70;64.40
45207;DHT22;30950;53.086;21.576;2023-05-18T15:07:27;17.70;65.60
45207;DHT22;30950;53.086;21.576;2023-05-18T15:09:55;17.70;66.00
45207;DHT22;30950;53.086;21.576;2023-05-18T15:12:22;17.70;65.90
45207;DHT22;30950;53.086;21.576;2023-05-18T15:14:49;17.70;66.40
45207;DHT22;30950;53.086;21.576;2023-05-18T15:17:17;17.70;65.90
45207;DHT22;30950;53.086;21.576;2023-05-18T15:19:44;17.80;65.40
45207;DHT22;30950;53.086;21.576;2023-05-18T15:22:12;17.70;64.50
45207;DHT22;30950;53.086;21.576;2023-05-18T15:24:40;17.60;64.20
45207;DHT22;30950;53.086;21.576;2023-05-18T15:27:07;17.50;64.50
45207;DHT22;30950;53.086;21.576;2023-05-18T15:29:35;17.40;64.10
45207;DHT22;30950;53.086;21.576;2023-05-18T15:32:02;17.40;64.60
45207;DHT22;30950;53.086;21.576;2023-05-18T15:34:30;17.40;65.30
45207;DHT22;30950;53.086;21.576;2023-05-18T15:36:59;17.30;64.60
45207;DHT22;30950;53.086;21.576;2023-05-18T15:39:27;17.20;64.00
45207;DHT22;30950;53.086;21.576;2023-05-18T15:41:55;17.10;64.10
45207;DHT22;30950;53.086;21.576;2023-05-18T15:44:22;17.00;64.50
45207;DHT22;30950;53.086;21.576;2023-05-18T15:46:49;16.90;65.10
45207;DHT22;30950;53.086;21.576;2023-05-18T15:49:17;16.80;65.90